sensor_id;sensor_type;location;lat;lon;timestamp;temperature;humidity
7512;DHT22;9999;48.780;9.146;2024-02-23T00:01:53;5.60;99.90
7512;DHT22;9999;48.780;9.146;2024-02-23T00:04:20;5.60;99.90
7512;DHT22;9999;48.780;9.146;2024-02-23T00:06:47;5.60;99.90
7512;DHT22;9999;48.780;9.146;2024-02-23T00:09:15;5.50;99.90
7512;DHT22;9999;48.780;9.146;2024-02-23T00:11:41;5.50;99.90
7512;DHT22;9999;48.780;9.146;2024-02-23T00:14:10;5.50;99.90
7512;DHT22;9999;48.780;9.146;2024-02-23T00:16:38;5.50;99.90
7512;DHT22;9999;48.780;9.146;2024-02-23T00:19:05;5.60;99.90
7512;DHT22;9999;48.780;9.146;2024-02-23T00:21:32;5.60;99.90
7512;DHT22;9999;48.780;9.146;2024-02-23T00:23:59;5.50;99.90
7512;DHT22;9999;48.780;9.146;2024-02-23T00:26:27;5.50;99.90
7512;DHT22;9999;48.780;9.146;2024-02-23T00:28:55;5.50;99.90
7512;DHT22;9999;48.780;9.146;2024-02-23T00:31:22;5.60;99.90
7512;DHT22;9999;48.780;9.146;2024-02-23T00:33:49;5.50;99.90
7512;DHT22;9999;48.780;9.146;2024-02-23T00:36:16;5.60;99.90
7512;DHT22;9999;48.780;9.146;2024-02-23T00:38:42;5.50;99.90
7512;DHT22;9999;48.780;9.146;2024-02-23T00:41:09;5.50;99.90
7512;DHT22;9999;48.780;9.146;2024-02-23T00:43:40;5.50;99.90
7512;DHT22;9999;48.780;9.146;2024-02-23T00:46:07;5.50;99.90
7512;DHT22;9999;48.780;9.146;2024-02-23T00:48:34;5.50;99.90
7512;DHT22;9999;48.780;9.146;2024-02-23T00:51:01;5.50;99.90
7512;DHT22;9999;48.780;9.146;2024-02-23T00:53:30;5.50;99.90
7512;DHT22;9999;48.780;9.146;2024-02-23T00:55:56;5.40;99.90
7512;DHT22;9999;48.780;9.146;2024-02-23T00:58:23;5.50;99.90
7512;DHT22;9999;48.780;9.146;2024-02-23T01:00:51;5.50;99.90
7512;DHT22;9999;48.780;9.146;2024-02-23T01:03:18;5.60;99.90
7512;DHT22;9999;48.780;9.146;2024-02-23T01:05:45;5.50;99.90
7512;DHT22;9999;48.780;9.146;2024-02-23T01:08:12;5.50;99.90
7512;DHT22;9999;48.780;9.146;2024-02-23T01:10:39;5.50;99.90
7512;DHT22;9999;48.780;9.146;2024-02-23T01:13:06;5.50;99.90
7512;DHT22;9999;48.780;9.146;2024-02-23T01:15:33;5.50;99.90
7512;DHT22;9999;48.780;9.146;2024-02-23T01:18:01;5.40;99.90
7512;DHT22;9999;48.780;9.146;2024-02-23T01:20:27;5.50;99.90
7512;DHT22;9999;48.780;9.146;2024-02-23T01:22:54;5.50;99.90
7512;DHT22;9999;48.780;9.146;2024-02-23T01:25:21;5.50;99.90
7512;DHT22;9999;48.780;9.146;2024-02-23T01:27:48;5.50;99.90
7512;DHT22;9999;48.780;9.146;2024-02-23T01:30:15;5.50;99.90
7512;DHT22;9999;48.780;9.146;2024-02-23T01:32:42;5.40;99.90
7512;DHT22;9999;48.780;9.146;2024-02-23T01:35:10;5.40;99.90
7512;DHT22;9999;48.780;9.146;2024-02-23T01:37:37;5.40;99.90
7512;DHT22;9999;48.780;9.146;2024-02-23T01:40:05;5.40;99.90
7512;DHT22;9999;48.780;9.146;2024-02-23T01:42:32;5.40;99.90
7512;DHT22;9999;48.780;9.146;2024-02-23T01:44:58;5.40;99.90
7512;DHT22;9999;48.780;9.146;2024-02-23T01:47:27;5.40;99.90
7512;DHT22;9999;48.780;9.146;2024-02-23T01:49:57;5.40;99.90
7512;DHT22;9999;48.780;9.146;2024-02-23T01:52:26;5.50;99.90
7512;DHT22;9999;48.780;9.146;2024-02-23T01:54:54;5.50;99.90
7512;DHT22;9999;48.780;9.146;2024-02-23T01:57:23;5.50;99.90
7512;DHT22;9999;48.780;9.146;2024-02-23T01:59:51;5.50;99.90
7512;DHT22;9999;48.780;9.146;2024-02-23T02:02:18;5.50;99.90
7512;DHT22;9999;48.780;9.146;2024-02-23T02:04:44;5.50;99.90
7512;DHT22;9999;48.780;9.146;2024-02-23T02:07:11;5.50;99.90
7512;DHT22;9999;48.780;9.146;2024-02-23T02:09:39;5.50;99.90
7512;DHT22;9999;48.780;9.146;2024-02-23T02:12:07;5.50;99.90
7512;DHT22;9999;48.780;9.146;2024-02-23T02:14:33;5.50;99.90
7512;DHT22;9999;48.780;9.146;2024-02-23T02:17:00;5.60;99.90
7512;DHT22;9999;48.780;9.146;2024-02-23T02:19:27;5.60;99.90
7512;DHT22;9999;48.780;9.146;2024-02-23T02:21:54;5.60;99.90
7512;DHT22;9999;48.780;9.146;2024-02-23T02:24:20;5.50;99.90
7512;DHT22;9999;48.780;9.146;2024-02-23T02:26:49;5.60;99.90
7512;DHT22;9999;48.780;9.146;2024-02-23T02:29:16;5.50;99.90
7512;DHT22;9999;48.780;9.146;2024-02-23T02:31:42;5.50;99.90
7512;DHT22;9999;48.780;9.146;2024-02-23T02:34:09;5.50;99.90
7512;DHT22;9999;48.780;9.146;2024-02-23T02:36:38;5.40;99.90
7512;DHT22;9999;48.780;9.146;2024-02-23T02:39:05;5.40;99.90
7512;DHT22;9999;48.780;9.146;2024-02-23T02:41:32;5.40;99.90
7512;DHT22;9999;48.780;9.146;2024-02-23T02:44:00;5.40;99.90
7512;DHT22;9999;48.780;9.146;2024-02-23T02:46:27;5.30;99.90
7512;DHT22;9999;48.780;9.146;2024-02-23T02:48:54;5.30;99.90
7512;DHT22;9999;48.780;9.146;2024-02-23T02:51:21;5.30;99.90
7512;DHT22;9999;48.780;9.146;2024-02-23T02:53:48;5.30;99.90
7512;DHT22;9999;48.780;9.146;2024-02-23T02:56:14;5.30;99.90
7512;DHT22;9999;48.780;9.146;2024-02-23T02:58:41;5.30;99.90
7512;DHT22;9999;48.780;9.146;2024-02-23T03:01:09;5.20;99.90
7512;DHT22;9999;48.780;9.146;2024-02-23T03:03:36;5.20;99.90
7512;DHT22;9999;48.780;9.146;2024-02-23T03:06:03;5.30;99.90
7512;DHT22;9999;48.780;9.146;2024-02-23T03:08:31;5.30;99.90
7512;DHT22;9999;48.780;9.146;2024-02-23T03:10:58;5.20;99.90
7512;DHT22;9999;48.780;9.146;2024-02-23T03:13:25;5.20;99.90
7512;DHT22;9999;48.780;9.146;2024-02-23T03:15:51;5.20;99.90
7512;DHT22;9999;48.780;9.146;2024-02-23T03:18:20;5.20;99.90
7512;DHT22;9999;48.780;9.146;2024-02-23T03:20:46;5.20;99.90
7512;DHT22;9999;48.780;9.146;2024-02-23T03:23:13;5.10;99.90
7512;DHT22;9999;48.780;9.146;2024-02-23T03:25:40;5.10;99.90
7512;DHT22;9999;48.780;9.146;2024-02-23T03:28:07;5.10;99.90
7512;DHT22;9999;48.780;9.146;2024-02-23T03:30:33;5.10;99.90
7512;DHT22;9999;48.780;9.146;2024-02-23T03:33:00;5.20;99.90
7512;DHT22;9999;48.780;9.146;2024-02-23T03:35:28;5.20;99.90
7512;DHT22;9999;48.780;9.146;2024-02-23T03:37:55;5.10;99.90
7512;DHT22;9999;48.780;9.146;2024-02-23T03:40:22;5.10;99.90
7512;DHT22;9999;48.780;9.146;2024-02-23T03:42:48;5.20;99.90
7512;DHT22;9999;48.780;9.146;2024-02-23T03:45:15;5.10;99.90
7512;DHT22;9999;48.780;9.146;2024-02-23T03:47:42;5.10;99.90
7512;DHT22;9999;48.780;9.146;2024-02-23T03:50:09;5.10;99.90
7512;DHT22;9999;48.780;9.146;2024-02-23T03:52:38;5.00;99.90
7512;DHT22;9999;48.780;9.146;2024-02-23T03:55:06;4.90;99.90
7512;DHT22;9999;48.780;9.146;2024-02-23T03:57:33;4.90;99.90
7512;DHT22;9999;48.780;9.146;2024-02-23T04:00:00;4.90;99.90
7512;DHT22;9999;48.780;9.146;2024-02-23T04:02:26;5.00;99.90
7512;DHT22;9999;48.780;9.146;2024-02-23T04:04:53;4.90;99.90
7512;DHT22;9999;48.780;9.146;2024-02-23T04:07:20;4.90;99.90
7512;DHT22;9999;48.780;9.146;2024-02-23T04:09:48;4.90;99.90
7512;DHT22;9999;48.780;9.146;2024-02-23T04:12:17;4.90;99.90
7512;DHT22;9999;48.780;9.146;2024-02-23T04:14:44;4.90;99.90
7512;DHT22;9999;48.780;9.146;2024-02-23T04:17:11;4.80;99.90
7512;DHT22;9999;48.780;9.146;2024-02-23T04:19:38;4.80;99.90
7512;DHT22;9999;48.780;9.146;2024-02-23T04:22:06;4.80;99.90
7512;DHT22;9999;48.780;9.146;2024-02-23T04:24:34;4.70;99.90
7512;DHT22;9999;48.780;9.146;2024-02-23T04:27:03;4.80;99.90
7512;DHT22;9999;48.780;9.146;2024-02-23T04:29:29;4.80;99.90
7512;DHT22;9999;48.780;9.146;2024-02-23T04:31:57;4.80;99.90
7512;DHT22;9999;48.780;9.146;2024-02-23T04:34:24;4.90;99.90
7512;DHT22;9999;48.780;9.146;2024-02-23T04:36:51;4.80;99.90
7512;DHT22;9999;48.780;9.146;2024-02-23T04:39:18;4.80;99.90
7512;DHT22;9999;48.780;9.146;2024-02-23T04:41:44;4.70;99.90
7512;DHT22;9999;48.780;9.146;2024-02-23T04:44:13;4.70;99.90
7512;DHT22;9999;48.780;9.146;2024-02-23T04:46:39;4.70;99.90
7512;DHT22;9999;48.780;9.146;2024-02-23T04:49:06;4.60;99.90
7512;DHT22;9999;48.780;9.146;2024-02-23T04:51:33;4.70;99.90
7512;DHT22;9999;48.780;9.146;2024-02-23T04:54:00;4.70;99.90
7512;DHT22;9999;48.780;9.146;2024-02-23T04:56:26;4.60;99.90
7512;DHT22;9999;48.780;9.146;2024-02-23T04:58:53;4.70;99.90
7512;DHT22;9999;48.780;9.146;2024-02-23T05:01:21;4.70;99.90
7512;DHT22;9999;48.780;9.146;2024-02-23T05:03:48;4.60;99.90
7512;DHT22;9999;48.780;9.146;2024-02-23T05:06:15;4.60;99.90
7512;DHT22;9999;48.780;9.146;2024-02-23T05:08:42;4.50;99.90
7512;DHT22;9999;48.780;9.146;2024-02-23T05:11:09;4.50;99.90
7512;DHT22;9999;48.780;9.146;2024-02-23T05:13:35;4.50;99.90
7512;DHT22;9999;48.780;9.146;2024-02-23T05:16:05;4.50;99.90
7512;DHT22;9999;48.780;9.146;2024-02-23T05:18:33;4.60;99.90
7512;DHT22;9999;48.780;9.146;2024-02-23T05:21:00;4.50;99.90
7512;DHT22;9999;48.780;9.146;2024-02-23T05:23:27;4.50;99.90
7512;DHT22;9999;48.780;9.146;2024-02-23T05:25:54;4.50;99.90
7512;DHT22;9999;48.780;9.146;2024-02-23T05:28:21;4.50;99.90
7512;DHT22;9999;48.780;9.146;2024-02-23T05:30:47;4.40;99.90
7512;DHT22;9999;48.780;9.146;2024-02-23T05:33:14;4.40;99.90
7512;DHT22;9999;48.780;9.146;2024-02-23T05:35:43;4.40;99.90
7512;DHT22;9999;48.780;9.146;2024-02-23T05:38:10;4.40;99.90
7512;DHT22;9999;48.780;9.146;2024-02-23T05:40:37;4.40;99.90
7512;DHT22;9999;48.780;9.146;2024-02-23T05:43:04;4.40;99.90
7512;DHT22;9999;48.780;9.146;2024-02-23T05:45:31;4.30;99.90
7512;DHT22;9999;48.780;9.146;2024-02-23T05:47:58;4.10;99.90
7512;DHT22;9999;48.780;9.146;2024-02-23T05:50:25;4.20;99.90
7512;DHT22;9999;48.780;9.146;2024-02-23T05:52:53;4.20;99.90
7512;DHT22;9999;48.780;9.146;2024-02-23T05:55:20;4.20;99.90
7512;DHT22;9999;48.780;9.146;2024-02-23T05:57:46;4.20;99.90
7512;DHT22;9999;48.780;9.146;2024-02-23T06:00:14;4.20;99.90
7512;DHT22;9999;48.780;9.146;2024-02-23T06:02:44;4.10;99.90
7512;DHT22;9999;48.780;9.146;2024-02-23T06:05:12;4.10;99.90
7512;DHT22;9999;48.780;9.146;2024-02-23T06:07:39;4.10;99.90
7512;DHT22;9999;48.780;9.146;2024-02-23T06:10:08;4.10;99.90
7512;DHT22;9999;48.780;9.146;2024-02-23T06:12:34;4.20;99.90
7512;DHT22;9999;48.780;9.146;2024-02-23T06:15:01;4.10;99.90
7512;DHT22;9999;48.780;9.146;2024-02-23T06:17:28;4.00;99.90
7512;DHT22;9999;48.780;9.146;2024-02-23T06:19:55;4.00;99.90
7512;DHT22;9999;48.780;9.146;2024-02-23T06:22:24;4.00;99.90
7512;DHT22;9999;48.780;9.146;2024-02-23T06:24:51;4.00;99.90
7512;DHT22;9999;48.780;9.146;2024-02-23T06:27:19;4.00;99.90
7512;DHT22;9999;48.780;9.146;2024-02-23T06:29:47;4.00;99.90
7512;DHT22;9999;48.780;9.146;2024-02-23T06:32:14;4.00;99.90
7512;DHT22;9999;48.780;9.146;2024-02-23T06:34:41;4.10;99.90
7512;DHT22;9999;48.780;9.146;2024-02-23T06:37:08;4.10;99.90
7512;DHT22;9999;48.780;9.146;2024-02-23T06:39:35;4.00;99.90
7512;DHT22;9999;48.780;9.146;2024-02-23T06:42:02;4.00;99.90
7512;DHT22;9999;48.780;9.146;2024-02-23T06:44:31;4.00;99.90
7512;DHT22;9999;48.780;9.146;2024-02-23T06:46:58;4.00;99.90
7512;DHT22;9999;48.780;9.146;2024-02-23T06:49:24;4.10;99.90
7512;DHT22;9999;48.780;9.146;2024-02-23T06:51:51;4.10;99.90
7512;DHT22;9999;48.780;9.146;2024-02-23T06:54:19;4.10;99.90
7512;DHT22;9999;48.780;9.146;2024-02-23T06:56:45;4.10;99.90
7512;DHT22;9999;48.780;9.146;2024-02-23T06:59:12;4.20;99.90
7512;DHT22;9999;48.780;9.146;2024-02-23T07:01:49;4.20;99.90
7512;DHT22;9999;48.780;9.146;2024-02-23T07:04:16;4.20;99.90
7512;DHT22;9999;48.780;9.146;2024-02-23T07:06:43;4.20;99.90
7512;DHT22;9999;48.780;9.146;2024-02-23T07:09:10;4.20;99.90
7512;DHT22;9999;48.780;9.146;2024-02-23T07:11:38;4.20;99.90
7512;DHT22;9999;48.780;9.146;2024-02-23T07:14:06;4.20;99.90
7512;DHT22;9999;48.780;9.146;2024-02-23T07:16:37;4.20;99.90
7512;DHT22;9999;48.780;9.146;2024-02-23T07:19:06;4.20;99.90
7512;DHT22;9999;48.780;9.146;2024-02-23T07:21:34;4.20;99.90
7512;DHT22;9999;48.780;9.146;2024-02-23T07:24:00;4.20;99.90
7512;DHT22;9999;48.780;9.146;2024-02-23T07:26:27;4.30;99.90
7512;DHT22;9999;48.780;9.146;2024-02-23T07:28:54;4.30;99.90
7512;DHT22;9999;48.780;9.146;2024-02-23T07:31:21;4.30;99.90
7512;DHT22;9999;48.780;9.146;2024-02-23T07:33:48;4.30;99.90
7512;DHT22;9999;48.780;9.146;2024-02-23T07:36:17;4.40;99.90
7512;DHT22;9999;48.780;9.146;2024-02-23T07:38:44;4.40;99.90
7512;DHT22;9999;48.780;9.146;2024-02-23T07:41:11;4.40;99.90
7512;DHT22;9999;48.780;9.146;2024-02-23T07:43:39;4.50;99.90
7512;DHT22;9999;48.780;9.146;2024-02-23T07:46:06;4.60;99.90
7512;DHT22;9999;48.780;9.146;2024-02-23T07:48:34;4.50;99.90
7512;DHT22;9999;48.780;9.146;2024-02-23T07:51:01;4.60;99.90
7512;DHT22;9999;48.780;9.146;2024-02-23T07:53:30;4.70;99.90
7512;DHT22;9999;48.780;9.146;2024-02-23T07:55:59;4.70;99.90
7512;DHT22;9999;48.780;9.146;2024-02-23T07:58:28;4.70;99.90
7512;DHT22;9999;48.780;9.146;2024-02-23T08:00:54;4.80;99.90
7512;DHT22;9999;48.780;9.146;2024-02-23T08:03:22;4.80;99.90
7512;DHT22;9999;48.780;9.146;2024-02-23T08:05:49;4.90;99.90
7512;DHT22;9999;48.780;9.146;2024-02-23T08:08:16;4.90;99.90
7512;DHT22;9999;48.780;9.146;2024-02-23T08:10:44;4.80;99.90
7512;DHT22;9999;48.780;9.146;2024-02-23T08:13:11;4.70;99.90
7512;DHT22;9999;48.780;9.146;2024-02-23T08:15:38;4.70;99.90
7512;DHT22;9999;48.780;9.146;2024-02-23T08:18:05;4.60;99.90
7512;DHT22;9999;48.780;9.146;2024-02-23T08:20:32;4.70;99.90
7512;DHT22;9999;48.780;9.146;2024-02-23T08:22:59;4.80;99.90
7512;DHT22;9999;48.780;9.146;2024-02-23T08:25:25;4.90;99.90
7512;DHT22;9999;48.780;9.146;2024-02-23T08:27:55;4.80;99.90
7512;DHT22;9999;48.780;9.146;2024-02-23T08:30:22;4.90;99.90
7512;DHT22;9999;48.780;9.146;2024-02-23T08:32:49;4.90;99.90
7512;DHT22;9999;48.780;9.146;2024-02-23T08:35:15;4.90;99.90
7512;DHT22;9999;48.780;9.146;2024-02-23T08:37:42;4.90;99.90
7512;DHT22;9999;48.780;9.146;2024-02-23T08:40:11;4.90;99.90
7512;DHT22;9999;48.780;9.146;2024-02-23T08:42:38;5.00;99.90
7512;DHT22;9999;48.780;9.146;2024-02-23T08:45:08;5.00;99.90
7512;DHT22;9999;48.780;9.146;2024-02-23T08:47:38;5.10;99.90
7512;DHT22;9999;48.780;9.146;2024-02-23T08:50:06;5.10;99.90
7512;DHT22;9999;48.780;9.146;2024-02-23T08:52:33;5.00;99.90
7512;DHT22;9999;48.780;9.146;2024-02-23T08:54:59;4.90;99.90
7512;DHT22;9999;48.780;9.146;2024-02-23T08:57:27;5.00;99.90
7512;DHT22;9999;48.780;9.146;2024-02-23T08:59:54;5.00;99.90
7512;DHT22;9999;48.780;9.146;2024-02-23T09:02:25;5.10;99.90
7512;DHT22;9999;48.780;9.146;2024-02-23T09:04:52;5.10;99.90
7512;DHT22;9999;48.780;9.146;2024-02-23T09:07:19;5.00;99.90
7512;DHT22;9999;48.780;9.146;2024-02-23T09:09:46;4.90;99.90
7512;DHT22;9999;48.780;9.146;2024-02-23T09:12:14;5.00;99.90
7512;DHT22;9999;48.780;9.146;2024-02-23T09:14:41;5.10;99.90
7512;DHT22;9999;48.780;9.146;2024-02-23T09:17:08;5.10;99.90
7512;DHT22;9999;48.780;9.146;2024-02-23T09:19:38;5.10;99.90
7512;DHT22;9999;48.780;9.146;2024-02-23T09:22:04;5.10;99.90
7512;DHT22;9999;48.780;9.146;2024-02-23T09:24:32;5.10;99.90
7512;DHT22;9999;48.780;9.146;2024-02-23T09:26:58;5.10;99.90
7512;DHT22;9999;48.780;9.146;2024-02-23T09:29:25;5.10;99.90
7512;DHT22;9999;48.780;9.146;2024-02-23T09:31:52;5.20;99.90
7512;DHT22;9999;48.780;9.146;2024-02-23T09:34:19;5.20;99.90
7512;DHT22;9999;48.780;9.146;2024-02-23T09:36:47;5.10;99.90
7512;DHT22;9999;48.780;9.146;2024-02-23T09:39:14;5.20;99.90
7512;DHT22;9999;48.780;9.146;2024-02-23T09:41:42;5.20;99.90
7512;DHT22;9999;48.780;9.146;2024-02-23T09:44:09;5.20;99.90
7512;DHT22;9999;48.780;9.146;2024-02-23T09:46:37;5.30;99.90
7512;DHT22;9999;48.780;9.146;2024-02-23T09:49:04;5.50;99.90
7512;DHT22;9999;48.780;9.146;2024-02-23T09:51:34;5.80;99.90
7512;DHT22;9999;48.780;9.146;2024-02-23T09:54:03;6.00;99.90
7512;DHT22;9999;48.780;9.146;2024-02-23T09:56:30;6.10;99.90
7512;DHT22;9999;48.780;9.146;2024-02-23T09:59:01;6.30;99.90
7512;DHT22;9999;48.780;9.146;2024-02-23T10:01:29;6.60;99.90
7512;DHT22;9999;48.780;9.146;2024-02-23T10:03:58;6.70;99.90
7512;DHT22;9999;48.780;9.146;2024-02-23T10:06:25;6.90;99.90
7512;DHT22;9999;48.780;9.146;2024-02-23T10:08:52;7.20;99.90
7512;DHT22;9999;48.780;9.146;2024-02-23T10:11:22;7.50;99.90
7512;DHT22;9999;48.780;9.146;2024-02-23T10:13:49;7.50;99.90
7512;DHT22;9999;48.780;9.146;2024-02-23T10:16:17;7.10;99.90
7512;DHT22;9999;48.780;9.146;2024-02-23T10:18:45;7.30;99.90
7512;DHT22;9999;48.780;9.146;2024-02-23T10:21:14;7.50;99.90
7512;DHT22;9999;48.780;9.146;2024-02-23T10:23:40;7.50;99.90
7512;DHT22;9999;48.780;9.146;2024-02-23T10:26:08;7.30;99.90
7512;DHT22;9999;48.780;9.146;2024-02-23T10:28:37;7.30;99.90
7512;DHT22;9999;48.780;9.146;2024-02-23T10:31:04;7.30;99.90
7512;DHT22;9999;48.780;9.146;2024-02-23T10:33:31;7.20;99.90
7512;DHT22;9999;48.780;9.146;2024-02-23T10:35:58;7.20;99.90
7512;DHT22;9999;48.780;9.146;2024-02-23T10:38:29;7.20;99.90
7512;DHT22;9999;48.780;9.146;2024-02-23T10:40:59;7.10;99.90
7512;DHT22;9999;48.780;9.146;2024-02-23T10:43:30;7.20;99.90
7512;DHT22;9999;48.780;9.146;2024-02-23T10:46:01;7.30;99.90
7512;DHT22;9999;48.780;9.146;2024-02-23T10:48:33;7.30;99.90
7512;DHT22;9999;48.780;9.146;2024-02-23T10:51:03;7.50;99.90
7512;DHT22;9999;48.780;9.146;2024-02-23T10:53:31;7.50;99.90
7512;DHT22;9999;48.780;9.146;2024-02-23T10:55:59;7.40;99.90
7512;DHT22;9999;48.780;9.146;2024-02-23T10:58:26;7.40;99.90
7512;DHT22;9999;48.780;9.146;2024-02-23T11:00:57;7.40;99.90
7512;DHT22;9999;48.780;9.146;2024-02-23T11:03:28;7.20;99.90
7512;DHT22;9999;48.780;9.146;2024-02-23T11:05:56;7.30;99.90
7512;DHT22;9999;48.780;9.146;2024-02-23T11:08:22;7.30;99.90
7512;DHT22;9999;48.780;9.146;2024-02-23T11:10:49;7.30;99.90
7512;DHT22;9999;48.780;9.146;2024-02-23T11:13:17;7.30;99.90
7512;DHT22;9999;48.780;9.146;2024-02-23T11:15:45;7.30;99.90
7512;DHT22;9999;48.780;9.146;2024-02-23T11:18:22;7.30;99.90
7512;DHT22;9999;48.780;9.146;2024-02-23T11:20:55;7.30;99.90
7512;DHT22;9999;48.780;9.146;2024-02-23T11:23:22;7.30;99.90
7512;DHT22;9999;48.780;9.146;2024-02-23T11:26:04;7.10;99.90
7512;DHT22;9999;48.780;9.146;2024-02-23T11:28:32;7.10;99.90
7512;DHT22;9999;48.780;9.146;2024-02-23T11:30:58;7.00;99.90
7512;DHT22;9999;48.780;9.146;2024-02-23T11:33:28;7.00;99.90
7512;DHT22;9999;48.780;9.146;2024-02-23T11:36:06;7.10;99.90
7512;DHT22;9999;48.780;9.146;2024-02-23T11:38:33;7.00;99.90
7512;DHT22;9999;48.780;9.146;2024-02-23T11:41:01;7.20;99.90
7512;DHT22;9999;48.780;9.146;2024-02-23T11:43:28;7.20;99.90
7512;DHT22;9999;48.780;9.146;2024-02-23T11:45:55;7.30;99.90
7512;DHT22;9999;48.780;9.146;2024-02-23T11:48:23;7.40;99.90
7512;DHT22;9999;48.780;9.146;2024-02-23T11:50:50;7.40;99.90
7512;DHT22;9999;48.780;9.146;2024-02-23T11:53:18;7.30;99.90
7512;DHT22;9999;48.780;9.146;2024-02-23T11:55:48;7.30;99.90
7512;DHT22;9999;48.780;9.146;2024-02-23T11:58:15;7.20;99.90
7512;DHT22;9999;48.780;9.146;2024-02-23T12:00:42;7.20;99.90
7512;DHT22;9999;48.780;9.146;2024-02-23T12:03:09;7.10;99.90
7512;DHT22;9999;48.780;9.146;2024-02-23T12:05:36;7.00;99.90
7512;DHT22;9999;48.780;9.146;2024-02-23T12:08:03;6.90;99.90
7512;DHT22;9999;48.780;9.146;2024-02-23T12:10:32;7.10;99.90
7512;DHT22;9999;48.780;9.146;2024-02-23T12:12:59;7.30;99.90
7512;DHT22;9999;48.780;9.146;2024-02-23T12:15:25;7.30;99.90
7512;DHT22;9999;48.780;9.146;2024-02-23T12:17:54;7.40;99.90
7512;DHT22;9999;48.780;9.146;2024-02-23T12:20:24;7.40;99.90
7512;DHT22;9999;48.780;9.146;2024-02-23T12:22:54;7.30;99.90
7512;DHT22;9999;48.780;9.146;2024-02-23T12:25:22;7.30;99.90
7512;DHT22;9999;48.780;9.146;2024-02-23T12:27:55;7.40;99.90
7512;DHT22;9999;48.780;9.146;2024-02-23T12:30:22;7.20;99.90
7512;DHT22;9999;48.780;9.146;2024-02-23T12:32:49;7.20;99.90
7512;DHT22;9999;48.780;9.146;2024-02-23T12:35:16;7.30;99.90
7512;DHT22;9999;48.780;9.146;2024-02-23T12:37:43;7.30;99.90
7512;DHT22;9999;48.780;9.146;2024-02-23T12:40:11;7.50;99.90
7512;DHT22;9999;48.780;9.146;2024-02-23T12:42:38;7.60;99.90
7512;DHT22;9999;48.780;9.146;2024-02-23T12:45:06;7.50;99.90
7512;DHT22;9999;48.780;9.146;2024-02-23T12:47:34;7.60;99.90
7512;DHT22;9999;48.780;9.146;2024-02-23T12:50:00;7.40;99.90
7512;DHT22;9999;48.780;9.146;2024-02-23T12:52:27;7.50;99.90
7512;DHT22;9999;48.780;9.146;2024-02-23T12:54:54;7.30;99.90
7512;DHT22;9999;48.780;9.146;2024-02-23T12:57:21;7.30;99.90
7512;DHT22;9999;48.780;9.146;2024-02-23T12:59:48;7.30;99.90
7512;DHT22;9999;48.780;9.146;2024-02-23T13:02:16;7.40;99.90
7512;DHT22;9999;48.780;9.146;2024-02-23T13:04:43;7.50;99.90
7512;DHT22;9999;48.780;9.146;2024-02-23T13:07:14;7.50;99.90
7512;DHT22;9999;48.780;9.146;2024-02-23T13:09:41;7.50;99.90
7512;DHT22;9999;48.780;9.146;2024-02-23T13:12:08;7.40;99.90
7512;DHT22;9999;48.780;9.146;2024-02-23T13:14:34;7.30;99.90
7512;DHT22;9999;48.780;9.146;2024-02-23T13:17:01;7.40;99.90
7512;DHT22;9999;48.780;9.146;2024-02-23T13:19:30;7.70;99.90
7512;DHT22;9999;48.780;9.146;2024-02-23T13:21:57;7.90;99.90
7512;DHT22;9999;48.780;9.146;2024-02-23T13:24:25;7.90;99.90
7512;DHT22;9999;48.780;9.146;2024-02-23T13:26:52;7.70;99.90
7512;DHT22;9999;48.780;9.146;2024-02-23T13:29:19;7.70;99.90
7512;DHT22;9999;48.780;9.146;2024-02-23T13:31:46;7.70;99.90
7512;DHT22;9999;48.780;9.146;2024-02-23T13:34:13;7.60;99.90
7512;DHT22;9999;48.780;9.146;2024-02-23T13:36:43;7.60;99.90
7512;DHT22;9999;48.780;9.146;2024-02-23T13:39:10;7.70;99.90
7512;DHT22;9999;48.780;9.146;2024-02-23T13:41:37;7.70;99.90
7512;DHT22;9999;48.780;9.146;2024-02-23T13:44:04;7.70;99.90
7512;DHT22;9999;48.780;9.146;2024-02-23T13:46:31;7.70;99.90
7512;DHT22;9999;48.780;9.146;2024-02-23T13:49:04;7.80;99.90
7512;DHT22;9999;48.780;9.146;2024-02-23T13:51:33;7.80;99.90
7512;DHT22;9999;48.780;9.146;2024-02-23T13:54:01;7.80;99.90
7512;DHT22;9999;48.780;9.146;2024-02-23T13:56:28;7.90;99.90
7512;DHT22;9999;48.780;9.146;2024-02-23T13:58:55;8.00;99.90
7512;DHT22;9999;48.780;9.146;2024-02-23T14:01:22;8.10;99.90
7512;DHT22;9999;48.780;9.146;2024-02-23T14:03:49;7.90;99.90
7512;DHT22;9999;48.780;9.146;2024-02-23T14:06:15;7.80;99.90
7512;DHT22;9999;48.780;9.146;2024-02-23T14:08:42;7.80;99.90
7512;DHT22;9999;48.780;9.146;2024-02-23T14:11:11;7.70;99.90
7512;DHT22;9999;48.780;9.146;2024-02-23T14:13:38;7.70;99.90
7512;DHT22;9999;48.780;9.146;2024-02-23T14:16:05;7.80;99.90
7512;DHT22;9999;48.780;9.146;2024-02-23T14:18:32;8.00;99.90
7512;DHT22;9999;48.780;9.146;2024-02-23T14:21:03;8.00;99.90
7512;DHT22;9999;48.780;9.146;2024-02-23T14:23:30;7.90;99.90
7512;DHT22;9999;48.780;9.146;2024-02-23T14:25:57;7.90;99.90
7512;DHT22;9999;48.780;9.146;2024-02-23T14:28:25;8.00;99.90
7512;DHT22;9999;48.780;9.146;2024-02-23T14:30:52;8.00;99.90
7512;DHT22;9999;48.780;9.146;2024-02-23T14:33:19;7.90;99.90
7512;DHT22;9999;48.780;9.146;2024-02-23T14:35:46;8.00;99.90
7512;DHT22;9999;48.780;9.146;2024-02-23T14:38:14;8.00;99.90
7512;DHT22;9999;48.780;9.146;2024-02-23T14:40:41;7.90;99.90
7512;DHT22;9999;48.780;9.146;2024-02-23T14:43:08;8.00;99.90
7512;DHT22;9999;48.780;9.146;2024-02-23T14:45:37;8.20;99.90
7512;DHT22;9999;48.780;9.146;2024-02-23T14:48:04;8.40;99.90
7512;DHT22;9999;48.780;9.146;2024-02-23T14:50:31;8.50;99.90
7512;DHT22;9999;48.780;9.146;2024-02-23T14:52:58;8.50;99.90
7512;DHT22;9999;48.780;9.146;2024-02-23T14:55:25;8.40;99.90
7512;DHT22;9999;48.780;9.146;2024-02-23T14:57:52;8.30;99.90
7512;DHT22;9999;48.780;9.146;2024-02-23T15:00:19;8.20;99.90
7512;DHT22;9999;48.780;9.146;2024-02-23T15:02:47;8.00;99.90
7512;DHT22;9999;48.780;9.146;2024-02-23T15:05:14;7.80;99.90
7512;DHT22;9999;48.780;9.146;2024-02-23T15:07:43;7.80;99.90
7512;DHT22;9999;48.780;9.146;2024-02-23T15:10:09;7.70;99.90
7512;DHT22;9999;48.780;9.146;2024-02-23T15:12:36;7.70;99.90
7512;DHT22;9999;48.780;9.146;2024-02-23T15:15:03;7.70;99.90
7512;DHT22;9999;48.780;9.146;2024-02-23T15:17:32;7.70;99.90
7512;DHT22;9999;48.780;9.146;2024-02-23T15:20:00;7.70;99.90
7512;DHT22;9999;48.780;9.146;2024-02-23T15:22:27;7.70;99.90
7512;DHT22;9999;48.780;9.146;2024-02-23T15:24:54;7.70;99.90
7512;DHT22;9999;48.780;9.146;2024-02-23T15:27:24;7.60;99.90
7512;DHT22;9999;48.780;9.146;2024-02-23T15:29:50;7.50;99.90
7512;DHT22;9999;48.780;9.146;2024-02-23T15:32:17;7.50;99.90
7512;DHT22;9999;48.780;9.146;2024-02-23T15:34:44;7.50;99.90
7512;DHT22;9999;48.780;9.146;2024-02-23T15:37:12;7.40;99.90
7512;DHT22;9999;48.780;9.146;2024-02-23T15:39:39;7.40;99.90
7512;DHT22;9999;48.780;9.146;2024-02-23T15:42:06;7.50;99.90
7512;DHT22;9999;48.780;9.146;2024-02-23T15:44:33;7.40;99.90
7512;DHT22;9999;48.780;9.146;2024-02-23T15:47:00;7.40;99.90
7512;DHT22;9999;48.780;9.146;2024-02-23T15:49:27;7.50;99.90
7512;DHT22;9999;48.780;9.146;2024-02-23T15:51:53;7.50;99.90
7512;DHT22;9999;48.780;9.146;2024-02-23T15:54:22;7.50;99.90
7512;DHT22;9999;48.780;9.146;2024-02-23T15:56:48;7.40;99.90
7512;DHT22;9999;48.780;9.146;2024-02-23T15:59:16;7.30;99.90
7512;DHT22;9999;48.780;9.146;2024-02-23T16:01:42;7.40;99.90
7512;DHT22;9999;48.780;9.146;2024-02-23T16:04:09;7.40;99.90
7512;DHT22;9999;48.780;9.146;2024-02-23T16:06:36;7.40;99.90
7512;DHT22;9999;48.780;9.146;2024-02-23T16:09:03;7.50;99.90
7512;DHT22;9999;48.780;9.146;2024-02-23T16:11:34;7.60;99.90
7512;DHT22;9999;48.780;9.146;2024-02-23T16:14:02;7.60;99.90
7512;DHT22;9999;48.780;9.146;2024-02-23T16:16:30;7.60;99.90
7512;DHT22;9999;48.780;9.146;2024-02-23T16:18:57;7.30;99.90